sensor_id;sensor_type;location;lat;lon;timestamp;P1;durP1;ratioP1;P2;durP2;ratioP2
12181;SDS011;6154;51.550;12.138;2023-04-16T00:01:17;8.07;;;5.50;;
12181;SDS011;6154;51.550;12.138;2023-04-16T00:03:47;7.45;;;5.47;;
12181;SDS011;6154;51.550;12.138;2023-04-16T00:06:16;7.80;;;5.47;;
12181;SDS011;6154;51.550;12.138;2023-04-16T00:08:44;7.85;;;5.65;;
12181;SDS011;6154;51.550;12.138;2023-04-16T00:11:12;8.80;;;5.97;;
12181;SDS011;6154;51.550;12.138;2023-04-16T00:13:40;8.38;;;5.43;;
12181;SDS011;6154;51.550;12.138;2023-04-16T00:16:08;8.65;;;5.72;;
12181;SDS011;6154;51.550;12.138;2023-04-16T00:18:36;7.20;;;5.15;;
12181;SDS011;6154;51.550;12.138;2023-04-16T00:21:06;12.25;;;5.80;;
12181;SDS011;6154;51.550;12.138;2023-04-16T00:23:35;9.55;;;6.03;;
12181;SDS011;6154;51.550;12.138;2023-04-16T00:26:03;8.60;;;5.72;;
12181;SDS011;6154;51.550;12.138;2023-04-16T00:28:31;9.52;;;5.80;;
12181;SDS011;6154;51.550;12.138;2023-04-16T00:31:00;8.90;;;5.47;;
12181;SDS011;6154;51.550;12.138;2023-04-16T00:33:28;7.95;;;5.62;;
12181;SDS011;6154;51.550;12.138;2023-04-16T00:35:56;8.15;;;5.82;;
12181;SDS011;6154;51.550;12.138;2023-04-16T00:38:26;8.55;;;6.05;;
12181;SDS011;6154;51.550;12.138;2023-04-16T00:40:56;9.68;;;6.37;;
12181;SDS011;6154;51.550;12.138;2023-04-16T00:43:24;8.55;;;5.72;;
12181;SDS011;6154;51.550;12.138;2023-04-16T00:45:55;7.78;;;6.10;;
12181;SDS011;6154;51.550;12.138;2023-04-16T00:48:23;8.02;;;5.55;;
12181;SDS011;6154;51.550;12.138;2023-04-16T00:50:53;7.68;;;4.95;;
12181;SDS011;6154;51.550;12.138;2023-04-16T00:53:22;8.07;;;5.65;;
12181;SDS011;6154;51.550;12.138;2023-04-16T00:55:51;9.02;;;5.07;;
12181;SDS011;6154;51.550;12.138;2023-04-16T00:58:23;9.77;;;6.18;;
12181;SDS011;6154;51.550;12.138;2023-04-16T01:00:52;8.85;;;5.62;;
12181;SDS011;6154;51.550;12.138;2023-04-16T01:03:20;9.95;;;6.05;;
12181;SDS011;6154;51.550;12.138;2023-04-16T01:05:48;7.72;;;5.70;;
12181;SDS011;6154;51.550;12.138;2023-04-16T01:08:19;8.65;;;5.85;;
12181;SDS011;6154;51.550;12.138;2023-04-16T01:10:48;9.25;;;5.22;;
12181;SDS011;6154;51.550;12.138;2023-04-16T01:13:17;7.32;;;5.03;;
12181;SDS011;6154;51.550;12.138;2023-04-16T01:15:46;7.80;;;5.20;;
12181;SDS011;6154;51.550;12.138;2023-04-16T01:18:14;7.57;;;5.55;;
12181;SDS011;6154;51.550;12.138;2023-04-16T01:20:43;7.15;;;5.55;;
12181;SDS011;6154;51.550;12.138;2023-04-16T01:23:12;7.65;;;5.55;;
12181;SDS011;6154;51.550;12.138;2023-04-16T01:25:42;9.00;;;6.07;;
12181;SDS011;6154;51.550;12.138;2023-04-16T01:28:10;8.45;;;5.72;;
12181;SDS011;6154;51.550;12.138;2023-04-16T01:30:39;8.48;;;5.85;;
12181;SDS011;6154;51.550;12.138;2023-04-16T01:33:08;7.50;;;5.22;;
12181;SDS011;6154;51.550;12.138;2023-04-16T01:35:37;7.50;;;4.87;;
12181;SDS011;6154;51.550;12.138;2023-04-16T01:38:08;7.93;;;5.65;;
12181;SDS011;6154;51.550;12.138;2023-04-16T01:40:37;6.10;;;4.60;;
12181;SDS011;6154;51.550;12.138;2023-04-16T01:43:05;7.93;;;4.87;;
12181;SDS011;6154;51.550;12.138;2023-04-16T01:45:34;5.68;;;4.45;;
12181;SDS011;6154;51.550;12.138;2023-04-16T01:48:03;7.43;;;4.78;;
12181;SDS011;6154;51.550;12.138;2023-04-16T01:50:31;7.47;;;4.75;;
12181;SDS011;6154;51.550;12.138;2023-04-16T01:53:00;6.45;;;4.60;;
12181;SDS011;6154;51.550;12.138;2023-04-16T01:55:32;8.65;;;4.93;;
12181;SDS011;6154;51.550;12.138;2023-04-16T01:58:01;6.82;;;4.47;;
12181;SDS011;6154;51.550;12.138;2023-04-16T02:00:29;7.78;;;5.50;;
12181;SDS011;6154;51.550;12.138;2023-04-16T02:02:57;9.38;;;5.32;;
12181;SDS011;6154;51.550;12.138;2023-04-16T02:05:26;6.45;;;4.75;;
12181;SDS011;6154;51.550;12.138;2023-04-16T02:07:56;5.82;;;4.22;;
12181;SDS011;6154;51.550;12.138;2023-04-16T02:10:25;7.15;;;4.65;;
12181;SDS011;6154;51.550;12.138;2023-04-16T02:12:54;8.95;;;5.35;;
12181;SDS011;6154;51.550;12.138;2023-04-16T02:15:22;5.37;;;4.40;;
12181;SDS011;6154;51.550;12.138;2023-04-16T02:17:51;6.18;;;4.32;;
12181;SDS011;6154;51.550;12.138;2023-04-16T02:20:23;5.68;;;4.00;;
12181;SDS011;6154;51.550;12.138;2023-04-16T02:22:51;5.25;;;3.60;;
12181;SDS011;6154;51.550;12.138;2023-04-16T02:25:20;7.25;;;3.80;;
12181;SDS011;6154;51.550;12.138;2023-04-16T02:27:50;5.05;;;3.90;;
12181;SDS011;6154;51.550;12.138;2023-04-16T02:30:21;5.30;;;3.80;;
12181;SDS011;6154;51.550;12.138;2023-04-16T02:32:50;5.50;;;3.50;;
12181;SDS011;6154;51.550;12.138;2023-04-16T02:35:18;4.95;;;3.62;;
12181;SDS011;6154;51.550;12.138;2023-04-16T02:37:47;4.40;;;3.22;;
12181;SDS011;6154;51.550;12.138;2023-04-16T02:40:15;4.18;;;3.33;;
12181;SDS011;6154;51.550;12.138;2023-04-16T02:42:43;4.05;;;2.95;;
12181;SDS011;6154;51.550;12.138;2023-04-16T02:45:12;3.85;;;3.08;;
12181;SDS011;6154;51.550;12.138;2023-04-16T02:47:42;2.80;;;2.50;;
12181;SDS011;6154;51.550;12.138;2023-04-16T02:50:10;3.17;;;2.78;;
12181;SDS011;6154;51.550;12.138;2023-04-16T02:52:38;3.28;;;2.97;;
12181;SDS011;6154;51.550;12.138;2023-04-16T02:55:07;3.85;;;3.22;;
12181;SDS011;6154;51.550;12.138;2023-04-16T02:57:36;5.70;;;4.18;;
12181;SDS011;6154;51.550;12.138;2023-04-16T03:00:05;6.12;;;4.43;;
12181;SDS011;6154;51.550;12.138;2023-04-16T03:02:35;6.60;;;5.05;;
12181;SDS011;6154;51.550;12.138;2023-04-16T03:05:05;7.75;;;5.95;;
12181;SDS011;6154;51.550;12.138;2023-04-16T03:07:33;10.85;;;6.62;;
12181;SDS011;6154;51.550;12.138;2023-04-16T03:10:02;8.93;;;6.20;;
12181;SDS011;6154;51.550;12.138;2023-04-16T03:12:30;9.10;;;6.35;;
12181;SDS011;6154;51.550;12.138;2023-04-16T03:14:58;10.90;;;7.22;;
12181;SDS011;6154;51.550;12.138;2023-04-16T03:17:29;11.73;;;7.28;;
12181;SDS011;6154;51.550;12.138;2023-04-16T03:19:57;10.57;;;7.55;;
12181;SDS011;6154;51.550;12.138;2023-04-16T03:22:26;11.98;;;7.22;;
12181;SDS011;6154;51.550;12.138;2023-04-16T03:24:54;9.80;;;6.80;;
12181;SDS011;6154;51.550;12.138;2023-04-16T03:27:23;9.63;;;6.97;;
12181;SDS011;6154;51.550;12.138;2023-04-16T03:29:51;11.75;;;7.12;;
12181;SDS011;6154;51.550;12.138;2023-04-16T03:32:19;10.88;;;6.30;;
12181;SDS011;6154;51.550;12.138;2023-04-16T03:34:48;12.77;;;6.25;;
12181;SDS011;6154;51.550;12.138;2023-04-16T03:37:16;9.55;;;6.45;;
12181;SDS011;6154;51.550;12.138;2023-04-16T03:39:45;8.02;;;6.05;;
12181;SDS011;6154;51.550;12.138;2023-04-16T03:42:14;11.00;;;7.03;;
12181;SDS011;6154;51.550;12.138;2023-04-16T03:44:42;11.35;;;5.85;;
12181;SDS011;6154;51.550;12.138;2023-04-16T03:47:11;10.52;;;6.15;;
12181;SDS011;6154;51.550;12.138;2023-04-16T03:49:39;10.85;;;7.50;;
12181;SDS011;6154;51.550;12.138;2023-04-16T03:52:07;9.52;;;6.75;;
12181;SDS011;6154;51.550;12.138;2023-04-16T03:54:37;10.52;;;7.00;;
12181;SDS011;6154;51.550;12.138;2023-04-16T03:57:06;13.60;;;8.05;;
12181;SDS011;6154;51.550;12.138;2023-04-16T03:59:34;10.27;;;7.15;;
12181;SDS011;6154;51.550;12.138;2023-04-16T04:02:03;12.25;;;6.90;;
12181;SDS011;6154;51.550;12.138;2023-04-16T04:04:31;11.35;;;7.82;;
12181;SDS011;6154;51.550;12.138;2023-04-16T04:07:00;9.85;;;6.47;;
12181;SDS011;6154;51.550;12.138;2023-04-16T04:09:28;10.27;;;7.05;;
12181;SDS011;6154;51.550;12.138;2023-04-16T04:11:56;10.80;;;7.15;;
12181;SDS011;6154;51.550;12.138;2023-04-16T04:14:26;11.80;;;6.50;;
12181;SDS011;6154;51.550;12.138;2023-04-16T04:16:54;8.50;;;6.20;;
12181;SDS011;6154;51.550;12.138;2023-04-16T04:19:22;12.60;;;7.25;;
12181;SDS011;6154;51.550;12.138;2023-04-16T04:21:50;9.82;;;6.68;;
12181;SDS011;6154;51.550;12.138;2023-04-16T04:24:18;12.07;;;6.85;;
12181;SDS011;6154;51.550;12.138;2023-04-16T04:26:47;8.52;;;6.00;;
12181;SDS011;6154;51.550;12.138;2023-04-16T04:29:15;10.65;;;6.82;;
12181;SDS011;6154;51.550;12.138;2023-04-16T04:31:46;11.85;;;7.40;;
12181;SDS011;6154;51.550;12.138;2023-04-16T04:34:14;12.45;;;7.35;;
12181;SDS011;6154;51.550;12.138;2023-04-16T04:36:43;12.70;;;7.25;;
12181;SDS011;6154;51.550;12.138;2023-04-16T04:39:11;9.10;;;7.00;;
12181;SDS011;6154;51.550;12.138;2023-04-16T04:41:40;11.05;;;7.25;;
12181;SDS011;6154;51.550;12.138;2023-04-16T04:44:09;12.70;;;6.87;;
12181;SDS011;6154;51.550;12.138;2023-04-16T04:46:37;11.07;;;7.18;;
12181;SDS011;6154;51.550;12.138;2023-04-16T04:49:06;13.07;;;7.90;;
12181;SDS011;6154;51.550;12.138;2023-04-16T04:51:35;14.45;;;7.72;;
12181;SDS011;6154;51.550;12.138;2023-04-16T04:54:04;10.23;;;7.28;;
12181;SDS011;6154;51.550;12.138;2023-04-16T04:56:32;12.52;;;7.55;;
12181;SDS011;6154;51.550;12.138;2023-04-16T04:59:00;15.68;;;9.00;;
12181;SDS011;6154;51.550;12.138;2023-04-16T05:01:29;14.87;;;7.93;;
12181;SDS011;6154;51.550;12.138;2023-04-16T05:03:58;11.30;;;7.15;;
12181;SDS011;6154;51.550;12.138;2023-04-16T05:06:27;12.05;;;7.55;;
12181;SDS011;6154;51.550;12.138;2023-04-16T05:08:55;15.02;;;8.75;;
12181;SDS011;6154;51.550;12.138;2023-04-16T05:11:24;11.02;;;7.95;;
12181;SDS011;6154;51.550;12.138;2023-04-16T05:13:52;12.13;;;7.68;;
12181;SDS011;6154;51.550;12.138;2023-04-16T05:16:20;14.52;;;8.43;;
12181;SDS011;6154;51.550;12.138;2023-04-16T05:18:48;15.38;;;8.05;;
12181;SDS011;6154;51.550;12.138;2023-04-16T05:21:16;16.10;;;8.30;;
12181;SDS011;6154;51.550;12.138;2023-04-16T05:23:46;12.77;;;8.60;;
12181;SDS011;6154;51.550;12.138;2023-04-16T05:26:14;13.90;;;8.70;;
12181;SDS011;6154;51.550;12.138;2023-04-16T05:28:42;13.38;;;7.60;;
12181;SDS011;6154;51.550;12.138;2023-04-16T05:31:10;15.95;;;8.10;;
12181;SDS011;6154;51.550;12.138;2023-04-16T05:33:38;13.05;;;8.07;;
12181;SDS011;6154;51.550;12.138;2023-04-16T05:36:06;13.45;;;7.78;;
12181;SDS011;6154;51.550;12.138;2023-04-16T05:38:34;16.48;;;8.23;;
12181;SDS011;6154;51.550;12.138;2023-04-16T05:41:04;15.75;;;9.30;;
12181;SDS011;6154;51.550;12.138;2023-04-16T05:43:32;15.63;;;9.23;;
12181;SDS011;6154;51.550;12.138;2023-04-16T05:46:00;13.38;;;8.48;;
12181;SDS011;6154;51.550;12.138;2023-04-16T05:48:28;18.37;;;9.00;;
12181;SDS011;6154;51.550;12.138;2023-04-16T05:50:56;16.40;;;9.52;;
12181;SDS011;6154;51.550;12.138;2023-04-16T05:53:24;18.50;;;9.55;;
12181;SDS011;6154;51.550;12.138;2023-04-16T05:55:52;15.60;;;9.88;;
12181;SDS011;6154;51.550;12.138;2023-04-16T05:58:22;14.13;;;8.52;;
12181;SDS011;6154;51.550;12.138;2023-04-16T06:00:50;17.92;;;9.00;;
12181;SDS011;6154;51.550;12.138;2023-04-16T06:03:18;13.48;;;9.80;;
12181;SDS011;6154;51.550;12.138;2023-04-16T06:05:46;18.75;;;9.73;;
12181;SDS011;6154;51.550;12.138;2023-04-16T06:08:14;17.10;;;10.27;;
12181;SDS011;6154;51.550;12.138;2023-04-16T06:10:44;14.57;;;8.30;;
12181;SDS011;6154;51.550;12.138;2023-04-16T06:13:13;14.38;;;9.07;;
12181;SDS011;6154;51.550;12.138;2023-04-16T06:15:43;18.87;;;10.07;;
12181;SDS011;6154;51.550;12.138;2023-04-16T06:18:14;17.98;;;10.00;;
12181;SDS011;6154;51.550;12.138;2023-04-16T06:20:44;16.25;;;10.07;;
12181;SDS011;6154;51.550;12.138;2023-04-16T06:23:14;16.10;;;9.38;;
12181;SDS011;6154;51.550;12.138;2023-04-16T06:25:42;19.83;;;10.40;;
12181;SDS011;6154;51.550;12.138;2023-04-16T06:28:10;17.50;;;10.07;;
12181;SDS011;6154;51.550;12.138;2023-04-16T06:30:38;16.48;;;9.32;;
12181;SDS011;6154;51.550;12.138;2023-04-16T06:33:11;16.62;;;9.00;;
12181;SDS011;6154;51.550;12.138;2023-04-16T06:35:39;16.60;;;9.50;;
12181;SDS011;6154;51.550;12.138;2023-04-16T06:38:07;14.57;;;9.30;;
12181;SDS011;6154;51.550;12.138;2023-04-16T06:40:35;15.02;;;8.77;;
12181;SDS011;6154;51.550;12.138;2023-04-16T06:43:04;20.25;;;9.93;;
12181;SDS011;6154;51.550;12.138;2023-04-16T06:45:32;17.83;;;9.50;;
12181;SDS011;6154;51.550;12.138;2023-04-16T06:48:02;13.05;;;9.00;;
12181;SDS011;6154;51.550;12.138;2023-04-16T06:50:32;16.60;;;9.18;;
12181;SDS011;6154;51.550;12.138;2023-04-16T06:53:01;18.58;;;9.65;;
12181;SDS011;6154;51.550;12.138;2023-04-16T06:55:29;13.73;;;8.80;;
12181;SDS011;6154;51.550;12.138;2023-04-16T06:57:57;16.15;;;8.70;;
12181;SDS011;6154;51.550;12.138;2023-04-16T07:00:25;16.52;;;9.25;;
12181;SDS011;6154;51.550;12.138;2023-04-16T07:02:53;14.60;;;8.23;;
12181;SDS011;6154;51.550;12.138;2023-04-16T07:05:24;15.88;;;8.48;;
12181;SDS011;6154;51.550;12.138;2023-04-16T07:07:54;16.52;;;8.85;;
12181;SDS011;6154;51.550;12.138;2023-04-16T07:10:23;12.20;;;8.00;;
12181;SDS011;6154;51.550;12.138;2023-04-16T07:12:51;12.75;;;8.88;;
12181;SDS011;6154;51.550;12.138;2023-04-16T07:15:19;13.93;;;8.05;;
12181;SDS011;6154;51.550;12.138;2023-04-16T07:17:47;15.57;;;8.93;;
12181;SDS011;6154;51.550;12.138;2023-04-16T07:20:16;11.82;;;7.68;;
12181;SDS011;6154;51.550;12.138;2023-04-16T07:22:44;11.85;;;7.47;;
12181;SDS011;6154;51.550;12.138;2023-04-16T07:25:13;11.32;;;7.10;;
12181;SDS011;6154;51.550;12.138;2023-04-16T07:27:42;14.25;;;8.98;;
12181;SDS011;6154;51.550;12.138;2023-04-16T07:30:10;15.20;;;8.48;;
12181;SDS011;6154;51.550;12.138;2023-04-16T07:32:38;11.90;;;7.72;;
12181;SDS011;6154;51.550;12.138;2023-04-16T07:35:07;11.77;;;7.68;;
12181;SDS011;6154;51.550;12.138;2023-04-16T07:37:35;12.52;;;7.55;;
12181;SDS011;6154;51.550;12.138;2023-04-16T07:40:04;9.70;;;6.90;;
12181;SDS011;6154;51.550;12.138;2023-04-16T07:42:34;11.48;;;6.43;;
12181;SDS011;6154;51.550;12.138;2023-04-16T07:45:03;12.45;;;7.30;;
12181;SDS011;6154;51.550;12.138;2023-04-16T07:47:31;10.18;;;6.62;;
12181;SDS011;6154;51.550;12.138;2023-04-16T07:50:00;9.82;;;6.30;;
12181;SDS011;6154;51.550;12.138;2023-04-16T07:52:28;9.95;;;6.97;;
12181;SDS011;6154;51.550;12.138;2023-04-16T07:54:56;9.70;;;6.68;;
12181;SDS011;6154;51.550;12.138;2023-04-16T07:57:24;11.30;;;6.43;;
12181;SDS011;6154;51.550;12.138;2023-04-16T07:59:54;13.50;;;7.95;;
12181;SDS011;6154;51.550;12.138;2023-04-16T08:02:22;11.48;;;7.20;;
12181;SDS011;6154;51.550;12.138;2023-04-16T08:04:50;11.88;;;7.25;;
12181;SDS011;6154;51.550;12.138;2023-04-16T08:07:19;10.52;;;7.62;;
12181;SDS011;6154;51.550;12.138;2023-04-16T08:09:47;12.65;;;7.43;;
12181;SDS011;6154;51.550;12.138;2023-04-16T08:12:17;13.55;;;8.13;;
12181;SDS011;6154;51.550;12.138;2023-04-16T08:14:46;11.10;;;7.68;;
12181;SDS011;6154;51.550;12.138;2023-04-16T08:17:16;11.27;;;7.50;;
12181;SDS011;6154;51.550;12.138;2023-04-16T08:19:44;10.77;;;6.45;;
12181;SDS011;6154;51.550;12.138;2023-04-16T08:22:13;10.15;;;7.65;;
12181;SDS011;6154;51.550;12.138;2023-04-16T08:24:41;12.00;;;7.05;;
12181;SDS011;6154;51.550;12.138;2023-04-16T08:27:11;10.18;;;6.43;;
12181;SDS011;6154;51.550;12.138;2023-04-16T08:29:45;8.70;;;6.03;;
12181;SDS011;6154;51.550;12.138;2023-04-16T08:32:14;9.45;;;6.12;;
12181;SDS011;6154;51.550;12.138;2023-04-16T08:34:43;11.20;;;6.37;;
12181;SDS011;6154;51.550;12.138;2023-04-16T08:37:11;11.43;;;5.87;;
12181;SDS011;6154;51.550;12.138;2023-04-16T08:39:40;9.98;;;5.55;;
12181;SDS011;6154;51.550;12.138;2023-04-16T08:42:09;9.63;;;6.10;;
12181;SDS011;6154;51.550;12.138;2023-04-16T08:44:42;10.15;;;5.60;;
12181;SDS011;6154;51.550;12.138;2023-04-16T08:47:15;8.85;;;6.15;;
12181;SDS011;6154;51.550;12.138;2023-04-16T08:49:45;9.13;;;6.15;;
12181;SDS011;6154;51.550;12.138;2023-04-16T08:52:14;7.62;;;5.78;;
12181;SDS011;6154;51.550;12.138;2023-04-16T08:54:46;8.13;;;5.20;;
12181;SDS011;6154;51.550;12.138;2023-04-16T08:57:22;7.32;;;5.60;;
12181;SDS011;6154;51.550;12.138;2023-04-16T08:59:57;8.60;;;4.50;;
12181;SDS011;6154;51.550;12.138;2023-04-16T09:02:27;7.97;;;5.30;;
12181;SDS011;6154;51.550;12.138;2023-04-16T09:04:57;6.45;;;4.90;;
12181;SDS011;6154;51.550;12.138;2023-04-16T09:07:29;7.80;;;5.57;;
12181;SDS011;6154;51.550;12.138;2023-04-16T09:09:59;8.77;;;4.65;;
12181;SDS011;6154;51.550;12.138;2023-04-16T09:12:29;8.10;;;4.57;;
12181;SDS011;6154;51.550;12.138;2023-04-16T09:14:58;8.45;;;4.85;;
12181;SDS011;6154;51.550;12.138;2023-04-16T09:17:29;7.37;;;4.85;;
12181;SDS011;6154;51.550;12.138;2023-04-16T09:19:59;5.72;;;3.75;;
12181;SDS011;6154;51.550;12.138;2023-04-16T09:22:27;6.32;;;4.20;;
12181;SDS011;6154;51.550;12.138;2023-04-16T09:24:56;5.90;;;4.35;;
12181;SDS011;6154;51.550;12.138;2023-04-16T09:27:24;4.70;;;3.62;;
12181;SDS011;6154;51.550;12.138;2023-04-16T09:29:52;7.72;;;3.87;;
12181;SDS011;6154;51.550;12.138;2023-04-16T09:32:23;5.03;;;3.80;;
12181;SDS011;6154;51.550;12.138;2023-04-16T09:34:53;4.82;;;3.33;;
12181;SDS011;6154;51.550;12.138;2023-04-16T09:37:24;5.97;;;4.00;;
12181;SDS011;6154;51.550;12.138;2023-04-16T09:39:55;5.87;;;4.35;;
12181;SDS011;6154;51.550;12.138;2023-04-16T09:42:25;5.57;;;4.25;;
12181;SDS011;6154;51.550;12.138;2023-04-16T09:44:55;4.35;;;3.30;;
12181;SDS011;6154;51.550;12.138;2023-04-16T09:47:37;6.05;;;3.58;;
12181;SDS011;6154;51.550;12.138;2023-04-16T09:50:07;4.25;;;3.35;;
12181;SDS011;6154;51.550;12.138;2023-04-16T09:52:42;5.45;;;3.55;;
12181;SDS011;6154;51.550;12.138;2023-04-16T09:55:11;3.95;;;3.50;;
12181;SDS011;6154;51.550;12.138;2023-04-16T09:57:40;6.68;;;3.67;;
12181;SDS011;6154;51.550;12.138;2023-04-16T10:00:09;5.00;;;3.78;;
12181;SDS011;6154;51.550;12.138;2023-04-16T10:02:38;6.22;;;4.25;;
12181;SDS011;6154;51.550;12.138;2023-04-16T10:05:12;6.18;;;3.70;;
12181;SDS011;6154;51.550;12.138;2023-04-16T10:07:44;6.65;;;4.97;;
12181;SDS011;6154;51.550;12.138;2023-04-16T10:10:14;6.65;;;4.18;;
12181;SDS011;6154;51.550;12.138;2023-04-16T10:12:43;8.38;;;4.47;;
12181;SDS011;6154;51.550;12.138;2023-04-16T10:15:11;4.95;;;4.07;;
12181;SDS011;6154;51.550;12.138;2023-04-16T10:17:39;7.60;;;4.15;;
12181;SDS011;6154;51.550;12.138;2023-04-16T10:20:08;6.87;;;4.50;;
12181;SDS011;6154;51.550;12.138;2023-04-16T10:22:36;5.35;;;3.92;;
12181;SDS011;6154;51.550;12.138;2023-04-16T10:25:06;5.62;;;4.22;;
12181;SDS011;6154;51.550;12.138;2023-04-16T10:27:35;7.80;;;4.82;;
12181;SDS011;6154;51.550;12.138;2023-04-16T10:30:04;9.98;;;5.65;;
12181;SDS011;6154;51.550;12.138;2023-04-16T10:32:34;9.18;;;5.72;;
12181;SDS011;6154;51.550;12.138;2023-04-16T10:35:06;8.43;;;5.65;;
12181;SDS011;6154;51.550;12.138;2023-04-16T10:37:35;7.60;;;5.70;;
12181;SDS011;6154;51.550;12.138;2023-04-16T10:42:56;9.50;;;5.60;;
12181;SDS011;6154;51.550;12.138;2023-04-16T10:45:30;9.63;;;6.18;;
12181;SDS011;6154;51.550;12.138;2023-04-16T10:48:01;8.82;;;6.45;;
12181;SDS011;6154;51.550;12.138;2023-04-16T10:50:34;11.27;;;7.37;;
12181;SDS011;6154;51.550;12.138;2023-04-16T10:53:16;10.85;;;6.78;;
12181;SDS011;6154;51.550;12.138;2023-04-16T10:55:57;11.48;;;8.15;;
12181;SDS011;6154;51.550;12.138;2023-04-16T10:58:41;12.20;;;7.55;;
12181;SDS011;6154;51.550;12.138;2023-04-16T11:01:10;11.48;;;6.85;;
12181;SDS011;6154;51.550;12.138;2023-04-16T11:03:40;13.55;;;6.90;;
12181;SDS011;6154;51.550;12.138;2023-04-16T11:06:11;13.18;;;6.90;;
12181;SDS011;6154;51.550;12.138;2023-04-16T11:08:40;13.48;;;6.72;;
12181;SDS011;6154;51.550;12.138;2023-04-16T11:11:22;7.72;;;5.57;;
12181;SDS011;6154;51.550;12.138;2023-04-16T11:13:53;10.05;;;6.00;;
12181;SDS011;6154;51.550;12.138;2023-04-16T11:16:23;10.30;;;5.68;;
12181;SDS011;6154;51.550;12.138;2023-04-16T11:18:52;9.52;;;5.78;;
12181;SDS011;6154;51.550;12.138;2023-04-16T11:21:23;10.32;;;6.95;;
12181;SDS011;6154;51.550;12.138;2023-04-16T11:23:52;8.40;;;5.03;;
12181;SDS011;6154;51.550;12.138;2023-04-16T11:26:25;11.20;;;6.93;;
12181;SDS011;6154;51.550;12.138;2023-04-16T11:28:56;11.77;;;7.15;;
12181;SDS011;6154;51.550;12.138;2023-04-16T11:31:25;13.00;;;8.45;;
12181;SDS011;6154;51.550;12.138;2023-04-16T11:33:56;11.75;;;7.75;;
12181;SDS011;6154;51.550;12.138;2023-04-16T11:36:26;10.82;;;7.30;;
12181;SDS011;6154;51.550;12.138;2023-04-16T11:39:00;9.05;;;6.40;;
12181;SDS011;6154;51.550;12.138;2023-04-16T11:41:30;11.35;;;7.03;;
12181;SDS011;6154;51.550;12.138;2023-04-16T11:43:58;12.02;;;7.70;;
12181;SDS011;6154;51.550;12.138;2023-04-16T11:49:13;14.73;;;7.30;;
12181;SDS011;6154;51.550;12.138;2023-04-16T11:51:43;12.82;;;7.93;;
12181;SDS011;6154;51.550;12.138;2023-04-16T11:54:17;10.45;;;7.35;;
12181;SDS011;6154;51.550;12.138;2023-04-16T11:56:48;12.20;;;6.62;;
12181;SDS011;6154;51.550;12.138;2023-04-16T11:59:17;11.77;;;7.05;;
12181;SDS011;6154;51.550;12.138;2023-04-16T12:01:49;11.00;;;7.43;;
12181;SDS011;6154;51.550;12.138;2023-04-16T12:04:19;12.80;;;7.35;;
12181;SDS011;6154;51.550;12.138;2023-04-16T12:07:03;12.90;;;7.57;;
12181;SDS011;6154;51.550;12.138;2023-04-16T12:09:32;13.40;;;7.10;;
12181;SDS011;6154;51.550;12.138;2023-04-16T12:12:12;13.00;;;8.00;;
12181;SDS011;6154;51.550;12.138;2023-04-16T12:14:52;13.00;;;8.57;;
12181;SDS011;6154;51.550;12.138;2023-04-16T12:17:22;14.68;;;8.57;;
12181;SDS011;6154;51.550;12.138;2023-04-16T12:19:51;11.63;;;7.15;;
12181;SDS011;6154;51.550;12.138;2023-04-16T12:22:26;11.93;;;7.57;;
12181;SDS011;6154;51.550;12.138;2023-04-16T12:24:57;10.90;;;7.03;;
12181;SDS011;6154;51.550;12.138;2023-04-16T12:27:40;13.40;;;7.70;;
12181;SDS011;6154;51.550;12.138;2023-04-16T12:30:11;11.02;;;7.40;;
12181;SDS011;6154;51.550;12.138;2023-04-16T12:32:40;11.90;;;7.60;;
12181;SDS011;6154;51.550;12.138;2023-04-16T12:35:09;13.50;;;7.80;;
12181;SDS011;6154;51.550;12.138;2023-04-16T12:37:38;13.18;;;7.80;;
12181;SDS011;6154;51.550;12.138;2023-04-16T12:40:07;12.60;;;7.93;;
12181;SDS011;6154;51.550;12.138;2023-04-16T12:42:38;13.43;;;7.78;;
12181;SDS011;6154;51.550;12.138;2023-04-16T12:45:07;9.77;;;6.68;;
12181;SDS011;6154;51.550;12.138;2023-04-16T12:47:36;11.48;;;7.25;;
12181;SDS011;6154;51.550;12.138;2023-04-16T12:50:04;10.02;;;6.18;;
12181;SDS011;6154;51.550;12.138;2023-04-16T12:52:33;11.65;;;6.80;;
12181;SDS011;6154;51.550;12.138;2023-04-16T12:55:02;11.70;;;6.87;;
12181;SDS011;6154;51.550;12.138;2023-04-16T12:57:31;11.05;;;6.80;;
12181;SDS011;6154;51.550;12.138;2023-04-16T12:59:59;9.00;;;6.72;;
12181;SDS011;6154;51.550;12.138;2023-04-16T13:02:28;10.35;;;6.53;;
12181;SDS011;6154;51.550;12.138;2023-04-16T13:04:58;10.77;;;7.18;;
12181;SDS011;6154;51.550;12.138;2023-04-16T13:07:26;9.23;;;6.32;;
12181;SDS011;6154;51.550;12.138;2023-04-16T13:09:57;10.15;;;6.25;;
12181;SDS011;6154;51.550;12.138;2023-04-16T13:12:26;11.05;;;7.30;;
12181;SDS011;6154;51.550;12.138;2023-04-16T13:14:54;11.30;;;6.57;;
12181;SDS011;6154;51.550;12.138;2023-04-16T13:17:23;11.02;;;6.20;;
12181;SDS011;6154;51.550;12.138;2023-04-16T13:19:52;11.35;;;7.28;;
12181;SDS011;6154;51.550;12.138;2023-04-16T13:22:20;12.40;;;7.00;;
12181;SDS011;6154;51.550;12.138;2023-04-16T13:24:49;10.57;;;6.93;;
12181;SDS011;6154;51.550;12.138;2023-04-16T13:27:17;7.93;;;5.93;;
12181;SDS011;6154;51.550;12.138;2023-04-16T13:29:48;11.43;;;7.00;;
12181;SDS011;6154;51.550;12.138;2023-04-16T13:32:17;10.73;;;6.95;;
12181;SDS011;6154;51.550;12.138;2023-04-16T13:34:45;9.50;;;6.10;;
12181;SDS011;6154;51.550;12.138;2023-04-16T13:37:15;11.43;;;6.75;;
12181;SDS011;6154;51.550;12.138;2023-04-16T13:39:44;10.05;;;6.30;;
12181;SDS011;6154;51.550;12.138;2023-04-16T13:42:12;9.68;;;5.70;;
12181;SDS011;6154;51.550;12.138;2023-04-16T13:44:40;6.90;;;5.50;;
12181;SDS011;6154;51.550;12.138;2023-04-16T13:47:08;9.95;;;6.72;;
12181;SDS011;6154;51.550;12.138;2023-04-16T13:49:36;8.63;;;5.72;;
12181;SDS011;6154;51.550;12.138;2023-04-16T13:52:04;10.32;;;6.00;;
12181;SDS011;6154;51.550;12.138;2023-04-16T13:54:34;10.27;;;6.28;;
12181;SDS011;6154;51.550;12.138;2023-04-16T13:57:02;12.60;;;7.07;;
12181;SDS011;6154;51.550;12.138;2023-04-16T13:59:30;8.55;;;6.00;;
12181;SDS011;6154;51.550;12.138;2023-04-16T14:01:59;8.43;;;5.28;;
12181;SDS011;6154;51.550;12.138;2023-04-16T14:04:27;8.68;;;5.95;;
12181;SDS011;6154;51.550;12.138;2023-04-16T14:06:56;7.32;;;5.00;;
12181;SDS011;6154;51.550;12.138;2023-04-16T14:09:24;8.05;;;5.72;;
12181;SDS011;6154;51.550;12.138;2023-04-16T14:11:53;9.25;;;5.95;;
12181;SDS011;6154;51.550;12.138;2023-04-16T14:14:21;8.75;;;5.60;;
12181;SDS011;6154;51.550;12.138;2023-04-16T14:16:50;9.68;;;6.85;;
12181;SDS011;6154;51.550;12.138;2023-04-16T14:19:20;7.40;;;4.75;;
12181;SDS011;6154;51.550;12.138;2023-04-16T14:21:48;7.85;;;5.62;;
12181;SDS011;6154;51.550;12.138;2023-04-16T14:24:17;8.18;;;5.65;;
12181;SDS011;6154;51.550;12.138;2023-04-16T14:26:45;9.35;;;5.40;;
12181;SDS011;6154;51.550;12.138;2023-04-16T14:29:15;9.07;;;5.80;;
12181;SDS011;6154;51.550;12.138;2023-04-16T14:31:43;7.03;;;5.43;;
12181;SDS011;6154;51.550;12.138;2023-04-16T14:34:13;8.27;;;5.57;;
12181;SDS011;6154;51.550;12.138;2023-04-16T14:36:41;6.82;;;5.32;;
12181;SDS011;6154;51.550;12.138;2023-04-16T14:39:09;8.85;;;5.70;;
12181;SDS011;6154;51.550;12.138;2023-04-16T14:41:38;8.45;;;5.82;;
12181;SDS011;6154;51.550;12.138;2023-04-16T14:44:06;8.30;;;5.47;;
12181;SDS011;6154;51.550;12.138;2023-04-16T14:46:36;9.43;;;6.20;;
12181;SDS011;6154;51.550;12.138;2023-04-16T14:49:06;11.12;;;5.75;;
12181;SDS011;6154;51.550;12.138;2023-04-16T14:51:38;14.05;;;6.40;;
12181;SDS011;6154;51.550;12.138;2023-04-16T14:54:06;8.95;;;6.72;;
12181;SDS011;6154;51.550;12.138;2023-04-16T14:56:35;8.57;;;5.75;;
12181;SDS011;6154;51.550;12.138;2023-04-16T14:59:03;9.55;;;5.60;;